sensor_id;sensor_type;location;lat;lon;timestamp;pressure;altitude;pressure_sealevel;temperature;humidity
71194;BME280;58903;47.210;8.618;2023-02-19T00:02:07;94980.81;;;26.63;35.96
71194;BME280;58903;47.210;8.618;2023-02-19T00:04:36;94978.81;;;26.63;36.76
71194;BME280;58903;47.210;8.618;2023-02-19T00:07:02;94970.28;;;26.61;36.33
71194;BME280;58903;47.210;8.618;2023-02-19T00:09:28;94972.53;;;26.63;35.88
71194;BME280;58903;47.210;8.618;2023-02-19T00:11:56;94970.28;;;26.61;35.96
71194;BME280;58903;47.210;8.618;2023-02-19T00:14:22;94966.25;;;26.62;36.52
71194;BME280;58903;47.210;8.618;2023-02-19T00:16:49;94963.50;;;26.62;36.59
71194;BME280;58903;47.210;8.618;2023-02-19T00:19:17;94951.50;;;26.60;36.16
71194;BME280;58903;47.210;8.618;2023-02-19T00:22:03;94952.97;;;26.61;36.63
71194;BME280;58903;47.210;8.618;2023-02-19T00:24:39;94961.25;;;26.61;36.55
71194;BME280;58903;47.210;8.618;2023-02-19T00:27:14;94955.72;;;26.61;36.33
71194;BME280;58903;47.210;8.618;2023-02-19T00:29:45;94959.50;;;26.63;36.46
71194;BME280;58903;47.210;8.618;2023-02-19T00:32:12;94964.00;;;26.61;36.65
71194;BME280;58903;47.210;8.618;2023-02-19T00:34:51;94961.75;;;26.59;36.71
71194;BME280;58903;47.210;8.618;2023-02-19T00:37:19;94963.75;;;26.59;35.99
71194;BME280;58903;47.210;8.618;2023-02-19T00:39:45;94966.00;;;26.60;36.56
71194;BME280;58903;47.210;8.618;2023-02-19T00:42:11;94964.75;;;26.61;36.48
71194;BME280;58903;47.210;8.618;2023-02-19T00:44:40;94960.00;;;26.62;36.25
71194;BME280;58903;47.210;8.618;2023-02-19T00:47:08;94959.25;;;26.61;36.46
71194;BME280;58903;47.210;8.618;2023-02-19T00:49:33;94958.50;;;26.61;36.12
71194;BME280;58903;47.210;8.618;2023-02-19T00:51:59;94951.97;;;26.58;36.40
71194;BME280;58903;47.210;8.618;2023-02-19T00:54:25;94954.25;;;26.60;35.87
71194;BME280;58903;47.210;8.618;2023-02-19T00:56:52;94943.69;;;26.58;36.27
71194;BME280;58903;47.210;8.618;2023-02-19T00:59:18;94942.44;;;26.59;35.88
71194;BME280;58903;47.210;8.618;2023-02-19T01:01:44;94940.44;;;26.60;36.05
71194;BME280;58903;47.210;8.618;2023-02-19T01:04:10;94937.41;;;26.58;36.86
71194;BME280;58903;47.210;8.618;2023-02-19T01:06:57;94946.44;;;26.58;36.10
71194;BME280;58903;47.210;8.618;2023-02-19T01:09:41;94940.69;;;26.56;36.57
71194;BME280;58903;47.210;8.618;2023-02-19T01:12:11;94942.94;;;26.58;36.09
71194;BME280;58903;47.210;8.618;2023-02-19T01:14:37;94941.69;;;26.59;36.75
71194;BME280;58903;47.210;8.618;2023-02-19T01:17:15;94940.44;;;26.60;36.01
71194;BME280;58903;47.210;8.618;2023-02-19T01:19:43;94936.69;;;26.57;36.08
71194;BME280;58903;47.210;8.618;2023-02-19T01:22:20;94944.44;;;26.59;36.68
71194;BME280;58903;47.210;8.618;2023-02-19T01:24:48;94935.16;;;26.56;36.73
71194;BME280;58903;47.210;8.618;2023-02-19T01:30:37;94932.66;;;26.58;35.99
71194;BME280;58903;47.210;8.618;2023-02-19T01:33:07;94936.69;;;26.57;36.58
71194;BME280;58903;47.210;8.618;2023-02-19T01:35:40;94930.41;;;26.57;36.61
71194;BME280;58903;47.210;8.618;2023-02-19T01:38:08;94919.38;;;26.57;36.12
71194;BME280;58903;47.210;8.618;2023-02-19T01:40:56;94922.13;;;26.57;36.74
71194;BME280;58903;47.210;8.618;2023-02-19T01:43:23;94920.63;;;26.56;36.72
71194;BME280;58903;47.210;8.618;2023-02-19T01:46:09;94912.34;;;26.56;36.01
71194;BME280;58903;47.210;8.618;2023-02-19T01:52:14;94918.63;;;26.56;36.69
71194;BME280;58903;47.210;8.618;2023-02-19T01:55:05;94906.09;;;26.55;36.12
71194;BME280;58903;47.210;8.618;2023-02-19T01:57:45;94899.81;;;26.55;36.36
71194;BME280;58903;47.210;8.618;2023-02-19T02:00:28;94910.09;;;26.54;36.03
71194;BME280;58903;47.210;8.618;2023-02-19T02:03:07;94914.38;;;26.55;36.11
71194;BME280;58903;47.210;8.618;2023-02-19T02:08:07;94909.84;;;26.52;35.95
71194;BME280;58903;47.210;8.618;2023-02-19T02:10:52;94912.38;;;26.50;36.43
71194;BME280;58903;47.210;8.618;2023-02-19T02:13:20;94905.09;;;26.47;36.37
71194;BME280;58903;47.210;8.618;2023-02-19T02:18:42;94910.38;;;26.51;36.53
71194;BME280;58903;47.210;8.618;2023-02-19T02:25:01;94894.81;;;26.48;36.42
71194;BME280;58903;47.210;8.618;2023-02-19T02:36:06;94882.78;;;26.51;36.54
71194;BME280;58903;47.210;8.618;2023-02-19T02:39:02;94874.50;;;26.45;36.11
71194;BME280;58903;47.210;8.618;2023-02-19T02:41:42;94875.50;;;26.48;36.66
71194;BME280;58903;47.210;8.618;2023-02-19T02:44:11;94880.25;;;26.47;36.54
71194;BME280;58903;47.210;8.618;2023-02-19T02:47:04;94874.00;;;26.47;36.33
71194;BME280;58903;47.210;8.618;2023-02-19T02:53:27;94850.44;;;26.46;36.84
71194;BME280;58903;47.210;8.618;2023-02-19T02:56:39;94842.16;;;26.46;36.16
71194;BME280;58903;47.210;8.618;2023-02-19T02:59:29;94837.41;;;26.46;36.68
71194;BME280;58903;47.210;8.618;2023-02-19T03:05:49;94837.88;;;26.45;36.63
71194;BME280;58903;47.210;8.618;2023-02-19T03:08:44;94833.63;;;26.44;36.24
71194;BME280;58903;47.210;8.618;2023-02-19T03:11:12;94841.66;;;26.42;36.75
71194;BME280;58903;47.210;8.618;2023-02-19T03:14:03;94843.44;;;26.39;37.00
71194;BME280;58903;47.210;8.618;2023-02-19T03:16:55;94853.47;;;26.42;36.52
71194;BME280;58903;47.210;8.618;2023-02-19T03:19:58;94862.22;;;26.41;36.47
71194;BME280;58903;47.210;8.618;2023-02-19T03:22:37;94855.22;;;26.40;36.25
71194;BME280;58903;47.210;8.618;2023-02-19T03:25:31;94856.22;;;26.42;36.97
71194;BME280;58903;47.210;8.618;2023-02-19T03:28:33;94848.44;;;26.41;36.12
71194;BME280;58903;47.210;8.618;2023-02-19T03:31:23;94851.69;;;26.39;36.30
71194;BME280;58903;47.210;8.618;2023-02-19T03:34:04;94852.22;;;26.38;36.62
71194;BME280;58903;47.210;8.618;2023-02-19T03:37:10;94855.22;;;26.40;36.46
71194;BME280;58903;47.210;8.618;2023-02-19T03:40:04;94856.69;;;26.41;36.67
71194;BME280;58903;47.210;8.618;2023-02-19T03:58:23;94850.97;;;26.33;36.62
71194;BME280;58903;47.210;8.618;2023-02-19T04:04:17;94838.19;;;26.36;36.78
71194;BME280;58903;47.210;8.618;2023-02-19T04:07:04;94850.94;;;26.39;36.05
71194;BME280;58903;47.210;8.618;2023-02-19T04:09:36;94863.50;;;26.34;36.04
71194;BME280;58903;47.210;8.618;2023-02-19T04:12:05;94883.31;;;26.33;36.17
71194;BME280;58903;47.210;8.618;2023-02-19T04:14:40;94886.31;;;26.35;36.07
71194;BME280;58903;47.210;8.618;2023-02-19T04:17:19;94894.59;;;26.35;36.99
71194;BME280;58903;47.210;8.618;2023-02-19T04:19:49;94887.81;;;26.36;36.36
71194;BME280;58903;47.210;8.618;2023-02-19T04:22:21;94885.06;;;26.36;36.74
71194;BME280;58903;47.210;8.618;2023-02-19T04:25:12;94882.06;;;26.34;36.77
71194;BME280;58903;47.210;8.618;2023-02-19T04:27:57;94876.78;;;26.36;36.30
71194;BME280;58903;47.210;8.618;2023-02-19T04:30:36;94877.78;;;26.33;36.48
71194;BME280;58903;47.210;8.618;2023-02-19T04:33:11;94872.28;;;26.33;36.89
71194;BME280;58903;47.210;8.618;2023-02-19T04:36:10;94877.53;;;26.31;36.16
71194;BME280;58903;47.210;8.618;2023-02-19T04:38:46;94875.53;;;26.31;36.75
71194;BME280;58903;47.210;8.618;2023-02-19T04:41:23;94858.00;;;26.29;36.15
71194;BME280;58903;47.210;8.618;2023-02-19T04:43:49;94846.97;;;26.29;36.28
71194;BME280;58903;47.210;8.618;2023-02-19T04:46:49;94827.66;;;26.29;36.20
71194;BME280;58903;47.210;8.618;2023-02-19T04:49:50;94822.91;;;26.29;36.88
71194;BME280;58903;47.210;8.618;2023-02-19T04:52:32;94823.91;;;26.26;36.63
71194;BME280;58903;47.210;8.618;2023-02-19T04:55:00;94823.38;;;26.28;36.25
71194;BME280;58903;47.210;8.618;2023-02-19T04:58:01;94824.91;;;26.29;36.90
71194;BME280;58903;47.210;8.618;2023-02-19T05:00:28;94833.94;;;26.29;36.75
71194;BME280;58903;47.210;8.618;2023-02-19T05:03:04;94830.94;;;26.27;36.60
71194;BME280;58903;47.210;8.618;2023-02-19T05:05:41;94838.69;;;26.29;36.23
71194;BME280;58903;47.210;8.618;2023-02-19T05:08:20;94855.25;;;26.29;36.20
71194;BME280;58903;47.210;8.618;2023-02-19T05:10:47;94867.03;;;26.29;36.25
71194;BME280;58903;47.210;8.618;2023-02-19T05:13:32;94866.78;;;26.27;36.05
71194;BME280;58903;47.210;8.618;2023-02-19T05:16:13;94862.00;;;26.28;36.32
71194;BME280;58903;47.210;8.618;2023-02-19T05:18:42;94870.78;;;26.26;36.73
71194;BME280;58903;47.210;8.618;2023-02-19T05:21:28;94871.53;;;26.27;36.84
71194;BME280;58903;47.210;8.618;2023-02-19T05:24:05;94859.00;;;26.26;36.44
71194;BME280;58903;47.210;8.618;2023-02-19T05:26:40;94867.25;;;26.26;36.36
71194;BME280;58903;47.210;8.618;2023-02-19T05:32:16;94872.78;;;26.26;36.44
71194;BME280;58903;47.210;8.618;2023-02-19T05:34:43;94868.78;;;26.27;36.83
71194;BME280;58903;47.210;8.618;2023-02-19T05:37:09;94871.53;;;26.27;36.50
71194;BME280;58903;47.210;8.618;2023-02-19T05:39:35;94869.53;;;26.27;36.35
71194;BME280;58903;47.210;8.618;2023-02-19T05:42:00;94879.31;;;26.23;36.26
71194;BME280;58903;47.210;8.618;2023-02-19T05:44:28;94878.28;;;26.26;37.02
71194;BME280;58903;47.210;8.618;2023-02-19T05:50:25;94875.28;;;26.24;36.69
71194;BME280;58903;47.210;8.618;2023-02-19T05:52:54;94873.56;;;26.21;36.87
71194;BME280;58903;47.210;8.618;2023-02-19T05:55:29;94880.56;;;26.22;36.65
71194;BME280;58903;47.210;8.618;2023-02-19T05:58:05;94880.03;;;26.23;35.89
71194;BME280;58903;47.210;8.618;2023-02-19T06:00:42;94877.81;;;26.22;36.46
71194;BME280;58903;47.210;8.618;2023-02-19T06:03:15;94880.81;;;26.24;36.97
71194;BME280;58903;47.210;8.618;2023-02-19T06:05:41;94884.31;;;26.24;36.71
71194;BME280;58903;47.210;8.618;2023-02-19T06:08:09;94887.06;;;26.24;36.42
71194;BME280;58903;47.210;8.618;2023-02-19T06:10:38;94888.84;;;26.22;36.12
71194;BME280;58903;47.210;8.618;2023-02-19T06:13:07;94887.34;;;26.21;37.09
71194;BME280;58903;47.210;8.618;2023-02-19T06:15:36;94887.34;;;26.21;37.11
71194;BME280;58903;47.210;8.618;2023-02-19T06:18:03;94886.59;;;26.20;36.77
71194;BME280;58903;47.210;8.618;2023-02-19T06:20:29;94890.59;;;26.19;36.62
71194;BME280;58903;47.210;8.618;2023-02-19T06:23:04;94894.63;;;26.18;36.65
71194;BME280;58903;47.210;8.618;2023-02-19T06:25:32;94899.13;;;26.15;36.80
71194;BME280;58903;47.210;8.618;2023-02-19T06:27:58;94902.38;;;26.20;36.90
71194;BME280;58903;47.210;8.618;2023-02-19T06:30:26;94915.91;;;26.17;36.64
71194;BME280;58903;47.210;8.618;2023-02-19T06:32:55;94918.66;;;26.17;36.25
71194;BME280;58903;47.210;8.618;2023-02-19T06:35:29;94922.19;;;26.18;36.67
71194;BME280;58903;47.210;8.618;2023-02-19T06:38:05;94910.63;;;26.20;36.04
71194;BME280;58903;47.210;8.618;2023-02-19T06:41:10;94909.41;;;26.21;36.28
71194;BME280;58903;47.210;8.618;2023-02-19T06:43:39;94914.66;;;26.19;36.12
71194;BME280;58903;47.210;8.618;2023-02-19T06:46:14;94920.94;;;26.13;36.51
71194;BME280;58903;47.210;8.618;2023-02-19T06:49:00;94926.44;;;26.13;36.75
71194;BME280;58903;47.210;8.618;2023-02-19T06:51:30;94940.97;;;26.14;36.93
71194;BME280;58903;47.210;8.618;2023-02-19T06:57:33;94958.00;;;26.12;37.08
71194;BME280;58903;47.210;8.618;2023-02-19T07:00:05;94959.75;;;26.10;36.35
71194;BME280;58903;47.210;8.618;2023-02-19T07:02:42;94977.31;;;26.12;36.65
71194;BME280;58903;47.210;8.618;2023-02-19T07:05:15;94980.56;;;26.11;36.80
71194;BME280;58903;47.210;8.618;2023-02-19T07:07:50;94984.34;;;26.13;37.10
71194;BME280;58903;47.210;8.618;2023-02-19T07:10:18;94978.06;;;26.13;36.60
71194;BME280;58903;47.210;8.618;2023-02-19T07:12:49;94981.59;;;26.13;36.51
71194;BME280;58903;47.210;8.618;2023-02-19T07:15:25;94991.09;;;26.12;36.71
71194;BME280;58903;47.210;8.618;2023-02-19T07:17:59;94998.34;;;26.10;37.05
71194;BME280;58903;47.210;8.618;2023-02-19T07:21:08;95010.38;;;26.12;36.92
71194;BME280;58903;47.210;8.618;2023-02-19T07:23:55;95022.69;;;26.11;36.56
71194;BME280;58903;47.210;8.618;2023-02-19T07:26:37;95020.41;;;26.10;36.49
71194;BME280;58903;47.210;8.618;2023-02-19T07:36:01;95024.94;;;26.13;37.15
71194;BME280;58903;47.210;8.618;2023-02-19T07:38:29;95032.97;;;26.11;36.46
71194;BME280;58903;47.210;8.618;2023-02-19T07:41:08;95036.66;;;26.08;37.00
71194;BME280;58903;47.210;8.618;2023-02-19T07:43:46;95036.22;;;26.09;36.41
71194;BME280;58903;47.210;8.618;2023-02-19T07:46:34;95048.72;;;26.10;36.45
71194;BME280;58903;47.210;8.618;2023-02-19T07:49:00;95048.72;;;26.10;36.93
71194;BME280;58903;47.210;8.618;2023-02-19T07:51:28;95056.53;;;26.12;36.81
71194;BME280;58903;47.210;8.618;2023-02-19T07:54:05;95051.25;;;26.08;36.34
71194;BME280;58903;47.210;8.618;2023-02-19T07:56:53;95064.03;;;26.11;36.80
71194;BME280;58903;47.210;8.618;2023-02-19T07:59:20;95066.03;;;26.11;36.93
71194;BME280;58903;47.210;8.618;2023-02-19T08:02:02;95051.50;;;26.10;36.27
71194;BME280;58903;47.210;8.618;2023-02-19T08:05:07;95067.28;;;26.10;36.67
71194;BME280;58903;47.210;8.618;2023-02-19T08:07:43;95064.50;;;26.04;36.71
71194;BME280;58903;47.210;8.618;2023-02-19T08:10:28;95068.00;;;26.05;36.81
71194;BME280;58903;47.210;8.618;2023-02-19T08:13:49;95077.78;;;26.06;36.87
71194;BME280;58903;47.210;8.618;2023-02-19T08:16:30;95080.53;;;26.06;36.69
71194;BME280;58903;47.210;8.618;2023-02-19T08:19:20;95082.03;;;26.07;36.98
71194;BME280;58903;47.210;8.618;2023-02-19T08:21:59;95088.31;;;26.07;36.19
71194;BME280;58903;47.210;8.618;2023-02-19T08:24:35;95093.84;;;26.07;37.09
71194;BME280;58903;47.210;8.618;2023-02-19T08:27:05;95087.84;;;26.09;37.32
71194;BME280;58903;47.210;8.618;2023-02-19T08:30:07;95085.09;;;26.09;36.27
71194;BME280;58903;47.210;8.618;2023-02-19T08:35:54;95098.09;;;26.08;37.07
71194;BME280;58903;47.210;8.618;2023-02-19T08:38:45;95094.84;;;26.10;37.12
71194;BME280;58903;47.210;8.618;2023-02-19T08:41:13;95100.13;;;26.13;36.88
71194;BME280;58903;47.210;8.618;2023-02-19T08:43:49;95097.38;;;26.13;36.55
71194;BME280;58903;47.210;8.618;2023-02-19T08:46:40;95112.91;;;26.16;36.25
71194;BME280;58903;47.210;8.618;2023-02-19T08:49:16;95104.91;;;26.19;36.33
71194;BME280;58903;47.210;8.618;2023-02-19T08:55:25;95111.94;;;26.20;36.56
71194;BME280;58903;47.210;8.618;2023-02-19T08:58:22;95106.16;;;26.17;36.46
71194;BME280;58903;47.210;8.618;2023-02-19T09:01:02;95111.16;;;26.19;37.08
71194;BME280;58903;47.210;8.618;2023-02-19T09:03:42;95108.41;;;26.19;36.93
71194;BME280;58903;47.210;8.618;2023-02-19T09:06:44;95114.69;;;26.20;36.37
71194;BME280;58903;47.210;8.618;2023-02-19T09:09:10;95110.16;;;26.16;36.76
71194;BME280;58903;47.210;8.618;2023-02-19T09:12:10;95115.19;;;26.18;36.56
71194;BME280;58903;47.210;8.618;2023-02-19T09:14:38;95109.16;;;26.20;36.86
71194;BME280;58903;47.210;8.618;2023-02-19T09:17:39;95113.44;;;26.21;36.67
71194;BME280;58903;47.210;8.618;2023-02-19T09:20:22;95120.97;;;26.26;36.58
71194;BME280;58903;47.210;8.618;2023-02-19T09:22:59;95109.94;;;26.26;36.41
71194;BME280;58903;47.210;8.618;2023-02-19T09:26:00;95113.44;;;26.26;36.87
71194;BME280;58903;47.210;8.618;2023-02-19T09:28:41;95105.94;;;26.27;36.63
71194;BME280;58903;47.210;8.618;2023-02-19T09:31:45;95112.22;;;26.27;36.68
71194;BME280;58903;47.210;8.618;2023-02-19T09:34:20;95113.69;;;26.28;36.63
71194;BME280;58903;47.210;8.618;2023-02-19T09:37:01;95111.69;;;26.29;36.07
71194;BME280;58903;47.210;8.618;2023-02-19T09:39:54;95108.69;;;26.27;35.89
71194;BME280;58903;47.210;8.618;2023-02-19T09:42:25;95106.16;;;26.23;36.78
71194;BME280;58903;47.210;8.618;2023-02-19T09:44:56;95095.38;;;26.20;36.07
71194;BME280;58903;47.210;8.618;2023-02-19T09:47:31;95106.66;;;26.22;36.92
71194;BME280;58903;47.210;8.618;2023-02-19T09:50:06;95113.19;;;26.19;36.88
71194;BME280;58903;47.210;8.618;2023-02-19T09:52:55;95101.88;;;26.16;36.15
71194;BME280;58903;47.210;8.618;2023-02-19T09:55:33;95114.69;;;26.14;36.96
71194;BME280;58903;47.210;8.618;2023-02-19T09:58:31;95102.13;;;26.13;37.10
71194;BME280;58903;47.210;8.618;2023-02-19T10:01:01;95106.88;;;26.12;36.42
71194;BME280;58903;47.210;8.618;2023-02-19T10:03:36;95116.19;;;26.15;36.59
71194;BME280;58903;47.210;8.618;2023-02-19T10:06:17;95113.66;;;26.11;37.29
71194;BME280;58903;47.210;8.618;2023-02-19T10:09:10;95106.88;;;26.12;36.50
71194;BME280;58903;47.210;8.618;2023-02-19T10:11:38;95107.41;;;26.11;37.08
71194;BME280;58903;47.210;8.618;2023-02-19T10:14:10;95106.88;;;26.12;36.51
71194;BME280;58903;47.210;8.618;2023-02-19T10:16:44;95111.16;;;26.13;37.01
71194;BME280;58903;47.210;8.618;2023-02-19T10:19:14;95110.91;;;26.11;36.92
71194;BME280;58903;47.210;8.618;2023-02-19T10:21:43;95113.41;;;26.09;36.58
71194;BME280;58903;47.210;8.618;2023-02-19T10:24:20;95114.16;;;26.10;36.89
71194;BME280;58903;47.210;8.618;2023-02-19T10:26:49;95109.63;;;26.07;36.70
71194;BME280;58903;47.210;8.618;2023-02-19T10:29:16;95113.84;;;26.08;37.15
71194;BME280;58903;47.210;8.618;2023-02-19T10:31:43;95112.66;;;26.09;37.09
71194;BME280;58903;47.210;8.618;2023-02-19T10:34:18;95115.88;;;26.07;36.67
71194;BME280;58903;47.210;8.618;2023-02-19T10:36:47;95114.66;;;26.08;36.39
71194;BME280;58903;47.210;8.618;2023-02-19T10:42:56;95115.13;;;26.07;36.44
71194;BME280;58903;47.210;8.618;2023-02-19T10:45:48;95111.91;;;26.08;37.05
71194;BME280;58903;47.210;8.618;2023-02-19T10:48:37;95110.38;;;26.07;37.25
71194;BME280;58903;47.210;8.618;2023-02-19T10:51:08;95110.38;;;26.07;36.31
71194;BME280;58903;47.210;8.618;2023-02-19T10:53:47;95106.09;;;26.06;36.40
71194;BME280;58903;47.210;8.618;2023-02-19T10:56:32;95105.16;;;26.09;37.09
71194;BME280;58903;47.210;8.618;2023-02-19T10:59:26;95107.91;;;26.09;36.25
71194;BME280;58903;47.210;8.618;2023-02-19T11:02:16;95100.88;;;26.08;36.37
71194;BME280;58903;47.210;8.618;2023-02-19T11:07:52;95110.38;;;26.07;37.23
71194;BME280;58903;47.210;8.618;2023-02-19T11:10:31;95105.59;;;26.08;36.31
71194;BME280;58903;47.210;8.618;2023-02-19T11:13:05;95103.63;;;26.08;36.99
71194;BME280;58903;47.210;8.618;2023-02-19T11:15:34;95095.34;;;26.08;36.45
71194;BME280;58903;47.210;8.618;2023-02-19T11:23:22;95101.63;;;26.09;37.14
71194;BME280;58903;47.210;8.618;2023-02-19T11:26:21;95091.34;;;26.09;36.97
71194;BME280;58903;47.210;8.618;2023-02-19T11:29:16;95088.84;;;26.11;36.56
71194;BME280;58903;47.210;8.618;2023-02-19T11:31:53;95088.34;;;26.13;36.71
71194;BME280;58903;47.210;8.618;2023-02-19T11:34:50;95076.81;;;26.14;36.65
71194;BME280;58903;47.210;8.618;2023-02-19T11:37:58;95077.06;;;26.16;37.23
71194;BME280;58903;47.210;8.618;2023-02-19T11:44:19;95082.88;;;26.19;36.49
71194;BME280;58903;47.210;8.618;2023-02-19T12:00:26;95089.88;;;26.20;36.41
71194;BME280;58903;47.210;8.618;2023-02-19T12:06:41;95080.31;;;26.09;37.14
71194;BME280;58903;47.210;8.618;2023-02-19T12:20:45;95074.06;;;26.14;36.90
71194;BME280;58903;47.210;8.618;2023-02-19T12:48:43;95070.78;;;26.10;37.20
71194;BME280;58903;47.210;8.618;2023-02-19T12:57:23;95072.06;;;26.09;37.12
71194;BME280;58903;47.210;8.618;2023-02-19T13:00:41;95065.03;;;26.08;37.55
71194;BME280;58903;47.210;8.618;2023-02-19T13:13:14;95082.31;;;26.14;37.24
71194;BME280;58903;47.210;8.618;2023-02-19T13:16:04;95087.38;;;26.16;37.06
71194;BME280;58903;47.210;8.618;2023-02-19T13:18:57;95089.63;;;26.17;36.34
71194;BME280;58903;47.210;8.618;2023-02-19T13:21:31;95092.38;;;26.17;37.02
71194;BME280;58903;47.210;8.618;2023-02-19T13:24:31;95095.63;;;26.16;36.74
71194;BME280;58903;47.210;8.618;2023-02-19T13:36:25;95097.13;;;26.11;36.19
71194;BME280;58903;47.210;8.618;2023-02-19T13:42:33;95099.13;;;26.11;37.00
71194;BME280;58903;47.210;8.618;2023-02-19T13:45:40;95099.88;;;26.11;36.25
71194;BME280;58903;47.210;8.618;2023-02-19T13:48:27;95100.66;;;26.12;36.37
71194;BME280;58903;47.210;8.618;2023-02-19T13:56:43;95079.06;;;26.10;36.18
71194;BME280;58903;47.210;8.618;2023-02-19T13:59:46;95091.34;;;26.09;36.29
71194;BME280;58903;47.210;8.618;2023-02-19T14:05:08;95095.34;;;26.08;36.36
71194;BME280;58903;47.210;8.618;2023-02-19T14:10:50;95097.06;;;26.06;36.30
71194;BME280;58903;47.210;8.618;2023-02-19T14:19:13;95083.53;;;26.08;36.22
71194;BME280;58903;47.210;8.618;2023-02-19T14:21:42;95088.31;;;26.07;36.44
71194;BME280;58903;47.210;8.618;2023-02-19T14:24:13;95087.78;;;26.03;36.93
71194;BME280;58903;47.210;8.618;2023-02-19T14:26:41;95084.81;;;26.07;36.29
71194;BME280;58903;47.210;8.618;2023-02-19T14:29:11;95076.53;;;26.07;36.34
71194;BME280;58903;47.210;8.618;2023-02-19T14:31:44;95074.81;;;26.09;36.54
71194;BME280;58903;47.210;8.618;2023-02-19T14:34:22;95073.28;;;26.08;37.08
71194;BME280;58903;47.210;8.618;2023-02-19T14:36:58;95068.75;;;26.05;37.23
71194;BME280;58903;47.210;8.618;2023-02-19T14:39:33;95077.28;;;26.07;36.67
71194;BME280;58903;47.210;8.618;2023-02-19T14:42:11;95083.09;;;26.09;36.22
71194;BME280;58903;47.210;8.618;2023-02-19T14:44:55;95074.28;;;26.05;36.82
71194;BME280;58903;47.210;8.618;2023-02-19T14:47:27;95085.56;;;26.07;36.86
71194;BME280;58903;47.210;8.618;2023-02-19T14:50:05;95082.31;;;26.09;37.13
71194;BME280;58903;47.210;8.618;2023-02-19T14:52:47;95085.56;;;26.07;36.70
71194;BME280;58903;47.210;8.618;2023-02-19T14:55:39;95082.81;;;26.07;36.68
71194;BME280;58903;47.210;8.618;2023-02-19T14:58:15;95073.00;;;26.06;36.46
71194;BME280;58903;47.210;8.618;2023-02-19T15:00:59;95086.81;;;26.06;36.23
71194;BME280;58903;47.210;8.618;2023-02-19T15:03:30;95088.31;;;26.07;36.65
71194;BME280;58903;47.210;8.618;2023-02-19T15:06:11;95082.81;;;26.07;36.71
71194;BME280;58903;47.210;8.618;2023-02-19T15:08:43;95085.31;;;26.05;36.11
71194;BME280;58903;47.210;8.618;2023-02-19T15:11:19;95084.31;;;26.08;36.68
71194;BME280;58903;47.210;8.618;2023-02-19T15:13:58;95076.53;;;26.07;36.50
71194;BME280;58903;47.210;8.618;2023-02-19T15:16:29;95070.25;;;26.06;36.36
71194;BME280;58903;47.210;8.618;2023-02-19T15:18:58;95074.28;;;26.05;36.68
71194;BME280;58903;47.210;8.618;2023-02-19T15:21:28;95076.28;;;26.05;36.22
71194;BME280;58903;47.210;8.618;2023-02-19T15:24:06;95083.03;;;26.04;36.13
71194;BME280;58903;47.210;8.618;2023-02-19T15:26:36;95091.81;;;26.02;37.03
71194;BME280;58903;47.210;8.618;2023-02-19T15:29:10;95095.56;;;26.05;36.92
71194;BME280;58903;47.210;8.618;2023-02-19T15:31:44;95096.06;;;26.03;36.29
71194;BME280;58903;47.210;8.618;2023-02-19T15:34:18;95102.06;;;26.02;36.67
71194;BME280;58903;47.210;8.618;2023-02-19T15:36:45;95110.59;;;26.04;36.40
71194;BME280;58903;47.210;8.618;2023-02-19T15:39:33;95109.31;;;25.99;36.98
71194;BME280;58903;47.210;8.618;2023-02-19T15:42:07;95127.63;;;26.02;36.92
71194;BME280;58903;47.210;8.618;2023-02-19T15:47:24;95133.91;;;26.03;36.86
71194;BME280;58903;47.210;8.618;2023-02-19T15:50:16;95141.41;;;26.02;36.29
71194;BME280;58903;47.210;8.618;2023-02-19T15:52:54;95140.66;;;26.02;36.92
71194;BME280;58903;47.210;8.618;2023-02-19T16:00:59;95160.22;;;26.04;36.06
71194;BME280;58903;47.210;8.618;2023-02-19T16:03:29;95162.72;;;26.02;36.98
71194;BME280;58903;47.210;8.618;2023-02-19T16:06:00;95156.44;;;26.01;36.86
71194;BME280;58903;47.210;8.618;2023-02-19T16:08:30;95157.44;;;25.98;36.00
71194;BME280;58903;47.210;8.618;2023-02-19T16:11:02;95166.22;;;26.02;35.95
71194;BME280;58903;47.210;8.618;2023-02-19T16:13:32;95163.97;;;26.01;36.85
71194;BME280;58903;47.210;8.618;2023-02-19T16:16:11;95167.97;;;26.00;37.01
71194;BME280;58903;47.210;8.618;2023-02-19T16:18:46;95162.47;;;26.00;36.07
71194;BME280;58903;47.210;8.618;2023-02-19T16:21:16;95165.22;;;26.00;36.49
71194;BME280;58903;47.210;8.618;2023-02-19T16:27:12;95167.72;;;25.98;36.85
71194;BME280;58903;47.210;8.618;2023-02-19T16:29:52;95171.22;;;25.98;36.13
71194;BME280;58903;47.210;8.618;2023-02-19T16:32:57;95182.25;;;25.98;36.09
71194;BME280;58903;47.210;8.618;2023-02-19T16:35:38;95190.78;;;26.00;36.36
71194;BME280;58903;47.210;8.618;2023-02-19T16:38:24;95190.03;;;26.00;36.78
71194;BME280;58903;47.210;8.618;2023-02-19T16:41:05;95187.78;;;25.98;35.97
71194;BME280;58903;47.210;8.618;2023-02-19T16:43:41;95204.31;;;25.98;36.97
71194;BME280;58903;47.210;8.618;2023-02-19T16:46:11;95207.53;;;25.97;36.29
71194;BME280;58903;47.210;8.618;2023-02-19T16:49:12;95207.31;;;26.00;36.81
71194;BME280;58903;47.210;8.618;2023-02-19T16:52:11;95206.56;;;26.00;36.90
71194;BME280;58903;47.210;8.618;2023-02-19T16:54:41;95202.78;;;25.97;36.79
71194;BME280;58903;47.210;8.618;2023-02-19T16:57:09;95206.81;;;25.96;36.53
71194;BME280;58903;47.210;8.618;2023-02-19T16:59:45;95198.53;;;25.96;36.11
71194;BME280;58903;47.210;8.618;2023-02-19T17:02:18;95207.06;;;25.98;36.78
71194;BME280;58903;47.210;8.618;2023-02-19T17:04:49;95212.31;;;25.96;36.85
71194;BME280;58903;47.210;8.618;2023-02-19T17:07:17;95209.78;;;25.93;36.29
71194;BME280;58903;47.210;8.618;2023-02-19T17:09:43;95216.31;;;25.95;36.78
71194;BME280;58903;47.210;8.618;2023-02-19T17:12:12;95219.06;;;25.95;36.81
71194;BME280;58903;47.210;8.618;2023-02-19T17:14:38;95232.09;;;25.95;36.65
71194;BME280;58903;47.210;8.618;2023-02-19T17:17:04;95243.13;;;25.95;36.21
71194;BME280;58903;47.210;8.618;2023-02-19T17:19:36;95243.13;;;25.95;36.23